In Rescue
 
Open Full Screen Window  High Contrast Mode
Wind Gusting 00 knots
04
October 18, 2021 1:39 PM EDT
Weather Information
Wind Direction
  330 °
Wind Speed
  04 kt (5 mph)
Wind Gust
  00 kt (0 mph)
Altimeter
29.79 in
Visibility
10 SM
Temperature
09° C
48° F
Dewpoint
03° C
37° F
Humidity
66%
1hr Rain Fall
00.00 in.
24hr Rain Fall
00.15 in.
Sky Condition
Overcast @ 4,400 ft
Scattered @ 3,300 ft
VFR

METAR K6B0 181739Z AUTO 33004KT 10SM SCT033 OVC044 09/03 A2979 RMK AO2 T00900033

FAA Disclaimer: The data displayed is for advisory purposes only and is not to be used for flight planning or operations.